Time;durP1;ratioP1;P1;durP2;ratioP2;P2;SDS_P1;SDS_P2;PMS_P1;PMS_P2;Temp;Humidity;BMP_temperature;BMP_pressure;BME280_temperature;BME280_humidity;BME280_pressure;Samples;Min_cycle;Max_cycle;Signal;HPM_P1;HPM_P2
2022/07/16 00:03:19;;;;;;;4.53;2.05;;;;;;;21.28;47.24;102112.38;5220281;28;20791;-44
2022/07/16 00:05:51;;;;;;;6.40;1.70;;;;;;;21.23;47.29;102109.41;5221416;28;20802;-43
2022/07/16 00:08:24;;;;;;;2.65;1.30;;;;;;;21.31;47.22;102112.81;5222629;28;20421;-43
2022/07/16 00:10:56;;;;;;;4.82;2.03;;;;;;;21.33;47.41;102123.34;5223757;28;20976;-43
2022/07/16 00:13:28;;;;;;;4.80;1.60;;;;;;;21.32;47.35;102119.00;5227317;28;20442;-45
2022/07/16 00:16:02;;;;;;;4.60;2.03;;;;;;;21.32;47.63;102119.00;5221757;28;20419;-45
2022/07/16 00:21:26;;;;;;;5.90;2.08;;;;;;;21.35;47.64;102115.94;5220170;28;20420;-43
2022/07/16 00:23:58;;;;;;;9.40;2.05;;;;;;;21.36;47.60;102110.41;5221994;28;20427;-45
2022/07/16 00:26:31;;;;;;;6.32;2.35;;;;;;;21.34;48.07;102116.97;5222769;28;20404;-45
2022/07/16 00:29:03;;;;;;;6.97;2.30;;;;;;;21.24;47.83;102105.69;5218912;28;20412;-44
2022/07/16 00:31:37;;;;;;;5.25;2.17;;;;;;;21.32;48.04;102111.78;5224029;28;20407;-43
2022/07/16 00:34:10;;;;;;;6.10;2.40;;;;;;;21.28;48.16;102112.38;5217228;28;20772;-42
2022/07/16 00:36:43;;;;;;;6.90;2.20;;;;;;;21.33;48.29;102126.88;5225273;28;20563;-46
2022/07/16 00:39:19;;;;;;;5.78;2.28;;;;;;;21.36;48.47;102128.38;5220685;28;20408;-44
2022/07/16 00:41:52;;;;;;;13.35;2.72;;;;;;;21.35;48.55;102124.00;5224101;28;20425;-43
2022/07/16 00:44:24;;;;;;;6.50;2.60;;;;;;;21.23;48.73;102112.91;5222942;28;20536;-43
2022/07/16 00:46:58;;;;;;;3.92;2.13;;;;;;;20.67;48.85;102032.91;5222027;28;20427;-44
2022/07/16 00:49:34;;;;;;;6.63;2.25;;;;;;;21.23;48.84;102115.59;5220875;28;20541;-42
2022/07/16 00:52:06;;;;;;;7.07;2.45;;;;;;;21.28;49.08;102131.16;5221266;28;20431;-44
2022/07/16 00:54:40;;;;;;;8.27;2.10;;;;;;;21.21;49.16;102130.25;5220228;28;20435;-42
2022/07/16 00:57:13;;;;;;;7.22;2.75;;;;;;;21.24;49.15;102137.91;5220305;28;20417;-42
2022/07/16 00:59:46;;;;;;;10.27;2.75;;;;;;;21.19;49.05;102130.44;5217218;28;20439;-46
2022/07/16 01:02:19;;;;;;;6.38;1.92;;;;;;;21.17;49.31;102129.78;5223241;28;20844;-45
2022/07/16 01:04:53;;;;;;;13.13;2.58;;;;;;;21.08;49.38;102128.22;5223231;28;20792;-43
2022/07/16 01:07:25;;;;;;;10.52;2.42;;;;;;;21.01;49.49;102121.94;5217034;28;20820;-44
2022/07/16 01:10:02;;;;;;;7.68;2.00;;;;;;;21.06;49.60;102130.25;5220422;28;22081;-48
2022/07/16 01:12:35;;;;;;;8.18;2.08;;;;;;;20.90;49.76;102121.41;5218000;28;20824;-45
2022/07/16 01:15:08;;;;;;;7.57;2.00;;;;;;;20.79;49.89;102132.63;5217726;28;20824;-43
2022/07/16 01:17:42;;;;;;;8.40;2.10;;;;;;;20.83;49.76;102138.44;5220800;28;20787;-49
2022/07/16 01:20:15;;;;;;;5.15;2.10;;;;;;;20.87;49.77;102143.28;5219762;28;20429;-43
2022/07/16 01:22:48;;;;;;;5.93;2.03;;;;;;;20.80;50.07;102130.75;5212306;28;20958;-47
2022/07/16 01:25:22;;;;;;;7.78;2.30;;;;;;;20.63;49.99;102117.53;5211142;28;20502;-46
2022/07/16 01:27:54;;;;;;;3.65;1.52;;;;;;;20.68;50.09;102123.16;5219759;28;20426;-43
2022/07/16 01:30:27;;;;;;;7.43;1.83;;;;;;;20.57;50.27;102129.00;5218763;28;20415;-45
2022/07/16 01:32:59;;;;;;;4.25;1.70;;;;;;;20.55;50.35;102139.09;5223135;28;20411;-44
2022/07/16 01:35:32;;;;;;;3.50;1.50;;;;;;;20.29;50.38;102117.22;5222802;28;20437;-44
2022/07/16 01:38:04;;;;;;;4.60;1.90;;;;;;;20.36;50.53;102134.22;5219394;28;20834;-43
2022/07/16 01:40:38;;;;;;;4.83;2.10;;;;;;;20.36;50.59;102156.53;5220458;28;20594;-44
2022/07/16 01:43:15;;;;;;;4.95;1.63;;;;;;;20.34;50.65;102144.31;5219695;28;20507;-43
2022/07/16 01:45:48;;;;;;;6.55;1.80;;;;;;;20.23;50.76;102135.69;5220123;28;20438;-42
2022/07/16 01:48:22;;;;;;;4.60;1.70;;;;;;;20.30;50.82;102143.00;5220385;28;20423;-43
2022/07/16 01:50:55;;;;;;;4.15;1.52;;;;;;;20.11;50.91;102115.69;5218934;28;20526;-43
2022/07/16 01:53:29;;;;;;;5.77;2.23;;;;;;;20.32;51.12;102157.09;5219696;28;28067;-45
2022/07/16 01:56:03;;;;;;;5.32;1.83;;;;;;;20.30;51.20;102156.44;5216351;28;20784;-43
2022/07/16 01:58:35;;;;;;;7.15;2.13;;;;;;;20.26;51.28;102151.41;5219673;28;20491;-42
2022/07/16 02:01:08;;;;;;;8.32;2.28;;;;;;;20.15;51.56;102146.47;5221073;28;20424;-43
2022/07/16 02:03:48;;;;;;;8.05;1.95;;;;;;;20.16;51.77;102158.91;5214914;28;20431;-47
2022/07/16 02:06:21;;;;;;;5.50;1.70;;;;;;;20.12;51.96;102157.56;5218851;28;20472;-44
2022/07/16 02:08:54;;;;;;;7.75;2.30;;;;;;;20.06;51.98;102150.25;5221144;28;20925;-42
2022/07/16 02:11:28;;;;;;;6.15;1.63;;;;;;;19.98;52.14;102136.94;5218969;28;20432;-46
2022/07/16 02:14:00;;;;;;;7.60;2.40;;;;;;;20.05;52.41;102156.63;5216223;28;20876;-43
2022/07/16 02:16:33;;;;;;;6.03;1.80;;;;;;;20.05;52.54;102148.59;5219347;28;20494;-48
2022/07/16 02:19:05;;;;;;;8.53;2.40;;;;;;;19.90;52.58;102118.22;5208314;28;21551;-43
2022/07/16 02:21:38;;;;;;;7.93;2.03;;;;;;;19.94;52.72;102130.25;5224558;28;20843;-41
2022/07/16 02:24:10;;;;;;;5.05;2.00;;;;;;;20.08;52.77;102164.31;5226236;28;20885;-50
2022/07/16 02:26:44;;;;;;;5.25;2.22;;;;;;;19.74;52.90;102103.94;5224838;28;20435;-43
2022/07/16 02:29:17;;;;;;;7.50;3.07;;;;;;;20.09;53.18;102165.97;5226991;28;20532;-42
2022/07/16 02:31:49;;;;;;;3.47;1.90;;;;;;;20.06;53.12;102169.03;5223360;28;20487;-44
2022/07/16 02:34:21;;;;;;;7.70;2.47;;;;;;;20.09;53.17;102174.03;5228457;28;20939;-44
2022/07/16 02:36:54;;;;;;;6.85;2.20;;;;;;;19.99;53.50;102157.34;5224482;28;20423;-43
2022/07/16 02:39:26;;;;;;;10.52;2.47;;;;;;;20.07;53.69;102177.91;5229163;28;21371;-45
2022/07/16 02:42:00;;;;;;;9.00;2.10;;;;;;;20.02;53.81;102175.78;5224476;28;20443;-43
2022/07/16 02:44:33;;;;;;;9.27;2.15;;;;;;;19.99;53.93;102176.13;5222320;28;20403;-44
2022/07/16 02:47:06;;;;;;;3.28;1.50;;;;;;;20.00;53.89;102196.56;5224388;28;20427;-43
2022/07/16 02:49:38;;;;;;;6.90;1.75;;;;;;;19.96;54.17;102184.53;5224287;28;20679;-43
2022/07/16 02:52:11;;;;;;;3.38;1.50;;;;;;;19.96;54.25;102197.94;5222865;28;20966;-44
2022/07/16 02:54:43;;;;;;;6.60;1.42;;;;;;;19.85;54.22;102201.88;5225159;27;20426;-50
2022/07/16 02:57:17;;;;;;;4.68;1.27;;;;;;;19.89;54.42;102213.09;5225718;28;20463;-45
2022/07/16 02:59:49;;;;;;;6.30;1.48;;;;;;;19.89;54.26;102213.09;5226098;27;20409;-43
2022/07/16 03:02:22;;;;;;;4.80;1.77;;;;;;;19.76;54.09;102197.59;5230720;28;20428;-43
2022/07/16 03:04:54;;;;;;;6.80;1.73;;;;;;;19.55;54.30;102182.09;5223850;28;20531;-45
2022/07/16 03:07:29;;;;;;;4.68;1.30;;;;;;;19.89;54.02;102218.44;5224945;28;20551;-43
2022/07/16 03:10:02;;;;;;;6.40;1.23;;;;;;;19.96;54.19;102230.94;5224220;28;20488;-43
2022/07/16 03:12:36;;;;;;;4.65;1.40;;;;;;;19.93;54.06;102251.91;5225975;28;20496;-42
2022/07/16 03:15:11;;;;;;;7.85;1.65;;;;;;;19.93;54.19;102227.78;5221160;28;20469;-46
2022/07/16 03:17:43;;;;;;;6.85;1.60;;;;;;;19.82;54.06;102223.69;5226637;28;20472;-44
2022/07/16 03:20:16;;;;;;;4.60;1.27;;;;;;;19.88;54.12;102227.47;5225931;28;20885;-45
2022/07/16 03:22:48;;;;;;;6.90;1.45;;;;;;;19.87;54.04;102231.19;5226408;28;20454;-46
2022/07/16 03:25:21;;;;;;;5.30;1.80;;;;;;;19.75;54.15;102226.22;5223601;28;20494;-43
2022/07/16 03:27:55;;;;;;;5.20;1.30;;;;;;;19.77;54.19;102232.25;5222656;28;20988;-44
2022/07/16 03:30:27;;;;;;;3.25;1.30;;;;;;;19.77;54.12;102242.97;5223509;28;20413;-43
2022/07/16 03:32:59;;;;;;;7.93;1.77;;;;;;;19.67;54.02;102220.91;5217722;28;20420;-43
2022/07/16 03:35:32;;;;;;;6.78;2.00;;;;;;;19.75;54.13;102249.50;5221079;28;20402;-42
2022/07/16 03:40:54;;;;;;;4.82;1.50;;;;;;;19.58;54.13;102238.00;5218518;28;20409;-42
2022/07/16 03:43:29;;;;;;;3.78;1.40;;;;;;;19.65;54.09;102251.56;5219267;28;20721;-47
2022/07/16 03:46:06;;;;;;;7.85;1.98;;;;;;;19.37;53.89;102224.38;5224330;28;20417;-43
2022/07/16 03:48:39;;;;;;;4.20;1.48;;;;;;;19.47;54.40;102254.47;5217054;28;20938;-42
2022/07/16 03:51:12;;;;;;;5.85;2.00;;;;;;;19.34;54.40;102247.81;5220537;28;20453;-46
2022/07/16 03:53:44;;;;;;;6.95;2.35;;;;;;;19.26;54.48;102245.19;5221366;28;20940;-46
2022/07/16 03:56:17;;;;;;;9.07;1.90;;;;;;;19.33;54.32;102266.75;5219813;28;20427;-43
2022/07/16 03:58:51;;;;;;;4.53;2.17;;;;;;;19.16;54.47;102255.25;5222175;28;20426;-43
2022/07/16 04:01:24;;;;;;;8.02;2.20;;;;;;;19.24;54.59;102295.41;5220556;28;20443;-44
2022/07/16 04:03:57;;;;;;;5.13;1.90;;;;;;;19.20;54.43;102271.81;5221067;28;20473;-46
2022/07/16 04:06:29;;;;;;;4.00;1.70;;;;;;;19.02;54.29;102247.94;5222093;28;20725;-49
2022/07/16 04:09:02;;;;;;;5.85;2.00;;;;;;;19.07;54.48;102266.97;5224791;28;20491;-45
2022/07/16 04:11:34;;;;;;;5.05;2.10;;;;;;;19.01;54.52;102259.63;5223476;28;20408;-44
2022/07/16 04:14:08;;;;;;;8.00;2.38;;;;;;;19.01;54.55;102268.50;5221332;28;22116;-46
2022/07/16 04:16:41;;;;;;;6.03;2.22;;;;;;;18.96;54.34;102260.16;5218760;28;20402;-42
2022/07/16 04:19:13;;;;;;;6.68;2.15;;;;;;;18.94;54.58;102261.34;5221433;28;20412;-43
2022/07/16 04:21:46;;;;;;;6.28;2.38;;;;;;;19.02;54.54;102286.25;5223174;28;20427;-42
2022/07/16 04:24:18;;;;;;;8.45;2.72;;;;;;;18.99;54.65;102286.59;5221228;28;20412;-43
2022/07/16 04:26:51;;;;;;;6.63;2.95;;;;;;;18.99;54.58;102291.13;5221556;28;21154;-43
2022/07/16 04:29:31;;;;;;;8.52;2.60;;;;;;;18.95;54.66;102287.09;5220582;28;20771;-44
2022/07/16 04:32:07;;;;;;;8.77;2.70;;;;;;;18.88;54.60;102287.75;5220498;28;20414;-44
2022/07/16 04:34:39;;;;;;;8.17;2.53;;;;;;;18.97;54.47;102293.13;5220738;28;20403;-45
2022/07/16 04:37:11;;;;;;;7.80;2.20;;;;;;;18.99;54.48;102297.31;5221633;28;20480;-41
2022/07/16 04:39:44;;;;;;;6.30;2.40;;;;;;;18.96;54.66;102297.66;5222899;28;20603;-42
2022/07/16 04:42:16;;;;;;;10.60;3.27;;;;;;;18.92;54.65;102290.09;5223478;28;20568;-43
2022/07/16 04:44:50;;;;;;;8.30;2.47;;;;;;;18.94;54.56;102305.00;5219061;28;20826;-42
2022/07/16 04:47:23;;;;;;;7.60;2.55;;;;;;;18.93;54.49;102305.19;5221378;28;20450;-43
2022/07/16 04:49:55;;;;;;;8.50;3.10;;;;;;;18.90;54.52;102295.63;5220038;28;20979;-41
2022/07/16 04:52:30;;;;;;;6.40;2.17;;;;;;;18.90;54.46;102303.66;5207552;28;20463;-42
2022/07/16 04:55:03;;;;;;;5.53;1.85;;;;;;;18.90;54.30;102309.03;5221031;28;20477;-44
2022/07/16 04:57:36;;;;;;;10.05;2.38;;;;;;;18.90;54.55;102311.69;5221931;28;20407;-43
2022/07/16 05:00:11;;;;;;;7.22;1.90;;;;;;;18.81;54.36;102305.50;5220731;28;20405;-42
2022/07/16 05:02:59;;;;;;;6.57;2.20;;;;;;;18.82;54.31;102312.53;5214951;28;20773;-43
2022/07/16 05:05:34;;;;;;;6.55;2.20;;;;;;;18.78;54.23;102308.53;5218329;28;20771;-43
2022/07/16 05:08:09;;;;;;;7.67;1.73;;;;;;;18.81;54.15;102321.56;5217480;28;20712;-44
2022/07/16 05:10:42;;;;;;;6.25;1.90;;;;;;;18.91;54.05;102323.25;5203313;28;20938;-43
2022/07/16 05:13:15;;;;;;;4.32;2.03;;;;;;;18.95;53.82;102324.56;5207192;28;20416;-43
2022/07/16 05:15:51;;;;;;;5.57;1.90;;;;;;;19.00;53.68;102335.63;5214060;28;20453;-41
2022/07/16 05:18:26;;;;;;;5.90;1.73;;;;;;;18.99;53.38;102323.25;5195260;28;20814;-43
2022/07/16 05:20:59;;;;;;;8.02;2.35;;;;;;;19.23;53.22;102331.25;5211286;28;20420;-43
2022/07/16 05:23:31;;;;;;;9.02;2.55;;;;;;;20.22;51.85;102311.09;5216149;28;20512;-44
2022/07/16 05:26:04;;;;;;;5.82;1.33;;;;;;;22.03;50.00;102324.41;5220373;28;20412;-44
2022/07/16 05:28:37;;;;;;;5.38;1.52;;;;;;;23.80;48.03;102316.28;5218417;28;20407;-44
2022/07/16 05:31:11;;;;;;;4.38;1.15;;;;;;;25.30;46.21;102317.69;5215002;28;20421;-47
2022/07/16 05:33:43;;;;;;;6.40;1.27;;;;;;;26.38;44.89;102308.03;5209878;28;20415;-46
2022/07/16 05:36:18;;;;;;;8.20;1.00;;;;;;;27.70;43.41;102340.38;5217435;28;20519;-49
2022/07/16 05:38:50;;;;;;;5.25;1.30;;;;;;;28.85;41.91;102344.78;5220372;28;20428;-47
2022/07/16 05:41:22;;;;;;;4.72;1.20;;;;;;;29.97;40.49;102344.50;5215744;28;20451;-50
2022/07/16 05:43:57;;;;;;;4.85;1.33;;;;;;;30.83;39.09;102346.31;5197024;28;21920;-47
2022/07/16 05:46:31;;;;;;;4.10;0.80;;;;;;;31.63;38.03;102343.06;5217873;28;20404;-47
2022/07/16 05:49:03;;;;;;;5.20;1.33;;;;;;;32.22;37.30;102336.06;5214091;28;20836;-51
2022/07/16 05:51:36;;;;;;;3.15;0.95;;;;;;;32.65;36.36;102313.19;5218109;28;20396;-47
2022/07/16 05:54:08;;;;;;;4.93;0.77;;;;;;;33.13;35.68;102340.59;5217139;28;20502;-48
2022/07/16 05:56:40;;;;;;;1.88;0.82;;;;;;;33.68;34.77;102328.25;5215643;28;20414;-49
2022/07/16 05:59:13;;;;;;;3.30;0.60;;;;;;;34.38;33.79;102345.94;5217281;28;20423;-48
2022/07/16 06:01:47;;;;;;;5.63;0.95;;;;;;;35.08;32.92;102348.06;5218437;28;20426;-51
2022/07/16 06:04:19;;;;;;;5.40;1.07;;;;;;;35.43;32.15;102343.53;5219956;28;20430;-52
2022/07/16 06:06:52;;;;;;;2.75;0.90;;;;;;;35.68;31.83;102335.22;5218204;28;20875;-49
2022/07/16 06:09:24;;;;;;;4.43;1.17;;;;;;;36.15;30.81;102349.50;5218085;28;20503;-47
2022/07/16 06:11:56;;;;;;;5.90;1.20;;;;;;;36.51;30.32;102358.31;5219833;28;20819;-50
2022/07/16 06:14:29;;;;;;;8.82;1.00;;;;;;;37.07;29.70;102355.03;5218673;28;20388;-49
2022/07/16 06:17:03;;;;;;;3.60;0.90;;;;;;;37.30;29.51;102361.63;5217513;28;21232;-50
2022/07/16 06:19:35;;;;;;;5.55;1.35;;;;;;;37.56;28.82;102356.63;5215230;28;20501;-50
2022/07/16 06:22:07;;;;;;;4.50;1.10;;;;;;;37.55;28.86;102359.69;5218317;28;20419;-50
2022/07/16 06:24:40;;;;;;;7.25;1.17;;;;;;;37.63;28.12;102360.94;5213544;28;20549;-46
2022/07/16 06:27:12;;;;;;;3.55;1.08;;;;;;;37.60;28.05;102373.41;5216589;28;20818;-51
2022/07/16 06:29:45;;;;;;;5.82;1.15;;;;;;;37.66;27.88;102354.84;5208580;28;20860;-49
2022/07/16 06:32:19;;;;;;;7.20;1.20;;;;;;;38.01;27.39;102381.94;5216669;28;20524;-51
2022/07/16 06:34:53;;;;;;;3.77;1.00;;;;;;;38.16;26.92;102385.59;5217476;28;20430;-52
2022/07/16 06:37:25;;;;;;;4.63;1.10;;;;;;;38.45;26.62;102389.00;5216233;28;20425;-52
2022/07/16 06:39:58;;;;;;;3.17;0.70;;;;;;;38.43;26.61;102380.19;5217706;28;20423;-52
2022/07/16 06:42:30;;;;;;;4.22;1.10;;;;;;;38.13;26.60;102386.19;5214611;28;20506;-54
2022/07/16 06:45:03;;;;;;;6.32;1.08;;;;;;;37.93;26.62;102404.66;5218351;28;22412;-50
2022/07/16 06:47:37;;;;;;;4.03;0.80;;;;;;;37.81;26.28;102409.78;5217667;28;20415;-53
2022/07/16 06:50:10;;;;;;;5.32;1.10;;;;;;;37.88;26.11;102403.88;5216535;28;20411;-48
2022/07/16 06:52:43;;;;;;;4.30;1.00;;;;;;;37.83;25.85;102413.06;5211770;28;20447;-49
2022/07/16 06:55:15;;;;;;;7.15;0.88;;;;;;;37.77;25.87;102394.94;5220092;28;20941;-51
2022/07/16 06:57:48;;;;;;;3.50;0.90;;;;;;;37.98;25.85;102407.38;5221667;28;20760;-51
2022/07/16 07:04:07;;;;;;;6.45;0.90;;;;;;;38.28;25.35;102416.28;5228192;28;20494;-52
2022/07/16 07:06:40;;;;;;;6.63;1.10;;;;;;;38.33;25.13;102426.44;5215152;28;20443;-53
2022/07/16 07:09:13;;;;;;;3.10;0.77;;;;;;;38.02;25.30;102424.94;5204369;28;20441;-51
2022/07/16 07:11:46;;;;;;;3.20;0.70;;;;;;;37.99;25.25;102433.81;5226981;28;20506;-53
2022/07/16 07:14:18;;;;;;;6.13;1.05;;;;;;;38.32;25.06;102431.13;5203294;28;20916;-56
2022/07/16 07:16:51;;;;;;;2.30;0.70;;;;;;;38.29;25.09;102428.97;5230299;28;20657;-52
2022/07/16 07:19:24;;;;;;;1.20;0.70;;;;;;;38.21;25.12;102418.59;5230437;28;20415;-50
2022/07/16 07:21:57;;;;;;;3.20;0.80;;;;;;;38.17;25.00;102437.69;5231183;28;20987;-49
2022/07/16 07:24:29;;;;;;;4.43;0.98;;;;;;;38.11;25.06;102427.84;5229177;28;20404;-52
2022/07/16 07:27:02;;;;;;;5.07;0.85;;;;;;;37.91;25.37;102439.13;5221389;28;20424;-50
2022/07/16 07:29:34;;;;;;;2.08;0.80;;;;;;;37.86;25.22;102429.03;5228704;28;20516;-54
2022/07/16 07:32:07;;;;;;;4.15;0.98;;;;;;;38.00;25.21;102437.38;5229566;28;20573;-53
2022/07/16 07:34:41;;;;;;;5.40;0.93;;;;;;;37.87;24.98;102421.56;5226068;28;20431;-52
2022/07/16 07:37:13;;;;;;;2.85;0.80;;;;;;;37.21;25.56;102436.97;5230051;28;20925;-51
2022/07/16 07:39:46;;;;;;;4.95;1.00;;;;;;;36.56;25.97;102437.25;5229007;28;20420;-50
2022/07/16 07:42:18;;;;;;;4.03;0.90;;;;;;;35.65;26.66;102433.88;5230227;28;20736;-48
2022/07/16 07:44:51;;;;;;;4.78;0.95;;;;;;;34.95;27.02;102436.50;5239504;27;20556;-52
2022/07/16 07:47:23;;;;;;;4.40;0.90;;;;;;;34.74;26.89;102438.41;5223556;28;20416;-50
2022/07/16 07:49:57;;;;;;;3.50;0.80;;;;;;;34.50;27.34;102433.44;5225192;28;20434;-52
2022/07/16 07:52:30;;;;;;;5.60;1.10;;;;;;;34.57;27.25;102441.44;5229122;28;20910;-51
2022/07/16 07:55:02;;;;;;;9.07;1.20;;;;;;;34.53;26.93;102445.78;5213518;28;20408;-52
2022/07/16 07:57:35;;;;;;;9.48;1.23;;;;;;;34.19;27.20;102462.72;5230368;28;20400;-49
2022/07/16 08:00:09;;;;;;;3.83;1.10;;;;;;;34.17;27.40;102454.78;5227112;28;20420;-50
2022/07/16 08:02:44;;;;;;;3.95;1.15;;;;;;;33.97;27.24;102455.53;5223344;28;20895;-51
2022/07/16 08:05:18;;;;;;;4.68;0.80;;;;;;;33.82;27.23;102455.47;5229241;28;20792;-52
2022/07/16 08:07:51;;;;;;;4.03;0.82;;;;;;;33.66;27.27;102453.72;5232293;27;20416;-50
2022/07/16 08:10:24;;;;;;;3.40;0.68;;;;;;;33.56;27.51;102434.50;5230125;28;20442;-51
2022/07/16 08:12:56;;;;;;;3.92;1.10;;;;;;;33.86;27.10;102474.94;5229205;28;20420;-46
2022/07/16 08:15:29;;;;;;;2.10;0.80;;;;;;;33.74;27.08;102453.22;5228905;28;20506;-47
2022/07/16 08:18:01;;;;;;;2.75;0.80;;;;;;;33.39;27.44;102468.34;5227152;28;20407;-46
2022/07/16 08:20:35;;;;;;;4.22;0.90;;;;;;;32.79;28.04;102466.75;5229426;28;20499;-48
2022/07/16 08:23:07;;;;;;;2.83;0.80;;;;;;;32.49;28.11;102468.16;5228675;28;20465;-49
2022/07/16 08:25:44;;;;;;;3.50;0.82;;;;;;;31.97;28.49;102470.53;5225255;28;20406;-51
2022/07/16 08:28:17;;;;;;;3.38;0.68;;;;;;;31.46;28.55;102444.13;5229458;28;20424;-45
2022/07/16 08:30:51;;;;;;;3.20;0.88;;;;;;;31.43;28.54;102482.03;5227235;28;20424;-46
2022/07/16 08:33:24;;;;;;;3.80;1.10;;;;;;;31.07;29.02;102478.75;5224485;28;20438;-49
2022/07/16 08:35:59;;;;;;;5.20;1.15;;;;;;;31.19;28.54;102486.84;5226678;28;20580;-51
2022/07/16 08:38:32;;;;;;;3.70;0.73;;;;;;;31.26;28.36;102497.59;5224859;28;20391;-47
2022/07/16 08:41:05;;;;;;;6.47;1.27;;;;;;;30.69;28.97;102502.06;5225573;28;20412;-46
2022/07/16 08:43:39;;;;;;;1.92;0.73;;;;;;;30.62;28.90;102498.66;5226186;28;20826;-47
2022/07/16 08:46:12;;;;;;;1.38;0.70;;;;;;;30.84;28.42;102506.16;5222614;28;20431;-50
2022/07/16 08:48:45;;;;;;;2.88;0.80;;;;;;;30.84;28.44;102501.53;5226342;28;20423;-46
2022/07/16 08:51:30;;;;;;;4.03;0.93;;;;;;;30.26;28.36;102432.56;5227370;28;20438;-45
2022/07/16 08:54:10;;;;;;;3.60;1.10;;;;;;;30.71;28.35;102502.63;5224564;28;20888;-46
2022/07/16 08:56:45;;;;;;;2.83;1.00;;;;;;;30.81;28.31;102517.56;5223775;28;20407;-51
2022/07/16 08:59:17;;;;;;;2.60;0.60;;;;;;;30.70;28.15;102511.91;5225988;28;20439;-46
2022/07/16 09:01:49;;;;;;;3.22;0.68;;;;;;;30.66;28.22;102505.28;5224374;28;20420;-47
2022/07/16 09:04:22;;;;;;;2.80;0.68;;;;;;;30.72;28.03;102512.50;5222188;28;20443;-48
2022/07/16 09:06:56;;;;;;;5.97;0.90;;;;;;;30.61;27.96;102497.00;5225198;28;20412;-47
2022/07/16 09:09:29;;;;;;;5.57;0.87;;;;;;;30.74;27.82;102518.50;5220797;28;20512;-47
2022/07/16 09:12:01;;;;;;;4.35;1.08;;;;;;;30.78;27.72;102522.47;5209002;28;20416;-46
2022/07/16 09:14:34;;;;;;;4.68;0.77;;;;;;;30.71;27.76;102497.19;5220987;28;20851;-47
2022/07/16 09:17:06;;;;;;;5.15;1.25;;;;;;;30.42;27.88;102522.81;5216258;28;20518;-50
2022/07/16 09:19:40;;;;;;;4.30;1.08;;;;;;;29.91;28.33;102541.59;5219203;28;20420;-51
2022/07/16 09:22:16;;;;;;;4.07;0.98;;;;;;;29.59;28.44;102532.94;5215945;28;20883;-49
2022/07/16 09:24:52;;;;;;;2.13;0.70;;;;;;;29.32;28.68;102533.38;5220809;28;20425;-48
2022/07/16 09:27:28;;;;;;;3.53;0.95;;;;;;;29.34;28.76;102536.72;5215851;28;20473;-47
2022/07/16 09:30:03;;;;;;;3.17;0.80;;;;;;;29.40;28.42;102545.84;5215571;28;20442;-46
2022/07/16 09:32:39;;;;;;;4.00;0.93;;;;;;;29.41;28.35;102537.41;5211452;28;20508;-48
2022/07/16 09:35:14;;;;;;;4.20;1.10;;;;;;;29.29;28.20;102533.84;5214242;28;20426;-48
2022/07/16 09:37:54;;;;;;;2.47;0.63;;;;;;;29.25;28.28;102559.06;5213199;28;20771;-47
2022/07/16 09:40:35;;;;;;;6.82;1.15;;;;;;;29.06;28.49;102544.72;5207470;28;20470;-49
2022/07/16 09:43:20;;;;;;;5.03;1.00;;;;;;;29.11;28.25;102548.38;5214927;28;20426;-44
2022/07/16 09:46:03;;;;;;;2.42;0.93;;;;;;;29.01;28.29;102552.69;5205971;28;20475;-47
2022/07/16 09:48:36;;;;;;;4.95;1.80;;;;;;;28.63;28.54;102529.38;5208686;28;20777;-46
2022/07/16 09:51:18;;;;;;;5.25;1.10;;;;;;;28.21;28.58;102489.34;5204148;28;20453;-47
2022/07/16 09:53:55;;;;;;;5.25;1.00;;;;;;;28.90;28.40;102562.47;5202961;28;20446;-48
2022/07/16 09:56:29;;;;;;;3.20;0.97;;;;;;;28.92;28.39;102544.84;5207310;28;20523;-49
2022/07/16 09:59:02;;;;;;;4.97;0.95;;;;;;;29.09;28.39;102566.81;5208869;28;20889;-46
2022/07/16 10:01:35;;;;;;;5.82;1.20;;;;;;;28.97;28.40;102574.09;5198754;28;20535;-48
2022/07/16 10:04:07;;;;;;;8.55;1.25;;;;;;;28.86;28.56;102572.97;5211436;28;20483;-48
2022/07/16 10:06:40;;;;;;;3.42;1.20;;;;;;;28.80;28.63;102583.94;5207595;28;20868;-42
2022/07/16 10:09:14;;;;;;;5.13;1.13;;;;;;;28.61;28.81;102564.94;5213924;28;20502;-47
2022/07/16 10:11:50;;;;;;;6.18;1.08;;;;;;;28.49;28.89;102575.78;5207587;28;20420;-45
2022/07/16 10:14:23;;;;;;;2.70;0.90;;;;;;;28.37;29.04;102569.41;5211597;28;20460;-50
2022/07/16 10:17:00;;;;;;;5.30;1.20;;;;;;;28.53;28.80;102578.03;5207510;28;20419;-46
2022/07/16 10:19:37;;;;;;;4.28;1.25;;;;;;;28.49;28.90;102573.06;5212070;28;20499;-45
2022/07/16 10:22:23;;;;;;;4.95;1.38;;;;;;;28.43;28.85;102568.53;5199712;28;20419;-43
2022/07/16 10:24:58;;;;;;;5.40;1.13;;;;;;;28.62;28.78;102577.50;5213279;28;20427;-44
2022/07/16 10:27:34;;;;;;;8.20;0.90;;;;;;;28.50;28.76;102557.56;5215128;28;20420;-48
2022/07/16 10:30:14;;;;;;;7.35;1.40;;;;;;;28.49;28.97;102593.94;5217353;28;20411;-45
2022/07/16 10:33:12;;;;;;;4.25;1.42;;;;;;;28.48;29.05;102587.69;5207912;28;20749;-45
2022/07/16 10:35:48;;;;;;;2.75;1.08;;;;;;;28.38;28.92;102570.22;5210230;28;20424;-44
2022/07/16 10:38:23;;;;;;;3.43;1.13;;;;;;;28.57;28.92;102579.22;5216553;28;21030;-44
2022/07/16 10:41:09;;;;;;;4.43;1.30;;;;;;;28.47;28.89;102591.47;5209959;28;20435;-44
2022/07/16 10:43:44;;;;;;;4.28;0.80;;;;;;;28.17;29.04;102585.09;5209477;28;20566;-45
2022/07/16 10:46:26;;;;;;;2.67;0.80;;;;;;;27.97;29.26;102597.00;5213808;28;20935;-44
2022/07/16 10:49:16;;;;;;;4.47;1.23;;;;;;;27.51;29.53;102598.19;5215388;28;20434;-47
2022/07/16 10:51:57;;;;;;;3.70;1.00;;;;;;;27.24;29.63;102596.72;5212014;28;20760;-45
2022/07/16 10:54:31;;;;;;;3.07;1.00;;;;;;;27.26;29.69;102606.31;5207535;28;26538;-44
2022/07/16 10:57:07;;;;;;;6.70;1.30;;;;;;;27.36;29.35;102590.34;5216337;28;20872;-45
2022/07/16 10:59:42;;;;;;;3.58;1.05;;;;;;;27.62;29.15;102593.91;5212615;28;20407;-43
2022/07/16 11:02:17;;;;;;;4.57;1.23;;;;;;;27.88;28.94;102592.91;5207721;28;20508;-47
2022/07/16 11:04:50;;;;;;;8.25;1.13;;;;;;;28.06;28.79;102597.53;5215048;28;20427;-43
2022/07/16 11:07:24;;;;;;;3.85;0.95;;;;;;;27.99;28.78;102583.19;5212949;28;20447;-47
2022/07/16 11:09:56;;;;;;;4.22;1.45;;;;;;;28.19;28.60;102596.56;5203789;28;20426;-45
2022/07/16 11:12:33;;;;;;;6.20;1.33;;;;;;;28.25;28.54;102596.50;5201882;28;20849;-48
2022/07/16 11:15:06;;;;;;;5.13;1.42;;;;;;;28.28;28.35;102598.75;5218733;28;20593;-47
2022/07/16 11:17:39;;;;;;;5.20;1.13;;;;;;;28.33;28.42;102589.91;5214962;28;20530;-46
2022/07/16 11:20:12;;;;;;;4.78;1.10;;;;;;;28.55;28.44;102603.91;5213320;28;20418;-48
2022/07/16 11:22:45;;;;;;;8.77;1.50;;;;;;;28.60;28.26;102592.38;5212961;28;20419;-46
2022/07/16 11:25:17;;;;;;;5.97;1.30;;;;;;;28.68;28.36;102613.81;5215519;28;20852;-47
2022/07/16 11:27:51;;;;;;;7.97;1.67;;;;;;;28.36;28.44;102589.47;5219219;28;20446;-46
2022/07/16 11:30:23;;;;;;;4.85;1.58;;;;;;;28.45;28.48;102619.94;5215938;28;20951;-46
2022/07/16 11:32:56;;;;;;;4.05;1.10;;;;;;;28.27;28.54;102629.69;5214860;28;21043;-47
2022/07/16 11:35:28;;;;;;;4.07;1.35;;;;;;;28.15;28.57;102630.66;5215943;28;20427;-47
2022/07/16 11:38:01;;;;;;;5.00;1.15;;;;;;;28.17;28.55;102623.13;5215444;28;20384;-45
2022/07/16 11:40:35;;;;;;;4.47;1.40;;;;;;;28.16;28.45;102599.75;5214330;28;20490;-46
2022/07/16 11:43:08;;;;;;;5.70;1.15;;;;;;;28.32;28.68;102610.00;5213362;28;20417;-47
2022/07/16 11:45:42;;;;;;;4.22;1.35;;;;;;;28.23;28.42;102579.56;5209453;28;20598;-48
2022/07/16 11:48:17;;;;;;;4.57;1.08;;;;;;;28.50;28.23;102595.63;5214625;28;20494;-50
2022/07/16 11:50:49;;;;;;;5.07;1.40;;;;;;;28.52;28.25;102590.78;5217168;28;20827;-45
2022/07/16 11:53:34;;;;;;;5.25;1.13;;;;;;;28.82;28.10;102623.44;5213813;28;20763;-46
2022/07/16 11:56:07;;;;;;;5.60;1.40;;;;;;;28.98;28.05;102608.38;5213722;28;20499;-44
2022/07/16 11:58:42;;;;;;;5.05;0.98;;;;;;;28.96;28.24;102616.78;5211424;28;20412;-46
2022/07/16 12:01:25;;;;;;;2.30;0.80;;;;;;;28.80;28.36;102617.41;5214185;28;20936;-47
2022/07/16 12:03:58;;;;;;;2.63;0.80;;;;;;;28.95;28.37;102631.41;5219611;28;20428;-51
2022/07/16 12:06:30;;;;;;;5.28;0.93;;;;;;;29.04;28.36;102636.59;5217481;28;20485;-48